Time;durP1;ratioP1;P1;durP2;ratioP2;P2;SDS_P1;SDS_P2;PMS_P1;PMS_P2;Temp;Humidity;BMP_temperature;BMP_pressure;BME280_temperature;BME280_humidity;BME280_pressure;Samples;Min_cycle;Max_cycle;Signal;HPM_P1;HPM_P2
2022/07/24 00:09:56;;;;;;;3.10;0.60;;;20.90;52.60;;;;;;20878116;28;20078;-75
2022/07/24 00:19:57;;;;;;;1.52;0.80;;;20.80;52.50;;;;;;20902102;28;20072;-74
2022/07/24 00:29:57;;;;;;;2.08;0.80;;;20.80;52.50;;;;;;20881773;28;20090;-74
2022/07/24 00:39:58;;;;;;;3.50;0.90;;;20.70;52.40;;;;;;20905015;28;20064;-74
2022/07/24 00:49:59;;;;;;;2.17;0.88;;;20.60;52.30;;;;;;20870245;28;20025;-74
2022/07/24 01:00:00;;;;;;;1.08;0.50;;;20.60;52.30;;;;;;21191235;22;20042;-75
2022/07/24 01:10:00;;;;;;;2.65;0.75;;;20.60;52.30;;;;;;20730104;28;20490;-74
2022/07/24 01:20:02;;;;;;;1.00;0.57;;;20.50;52.10;;;;;;20718184;28;20041;-74
2022/07/24 01:30:02;;;;;;;1.10;0.68;;;20.50;52.10;;;;;;20680180;28;20491;-74
2022/07/24 01:40:03;;;;;;;2.28;0.68;;;20.40;51.90;;;;;;20734549;28;20104;-74
2022/07/24 01:50:04;;;;;;;1.92;0.70;;;20.30;51.70;;;;;;20737156;28;20131;-74
2022/07/24 02:00:08;;;;;;;0.98;0.60;;;20.30;51.80;;;;;;20735865;28;20050;-74
2022/07/24 02:10:14;;;;;;;2.13;1.02;;;20.20;52.20;;;;;;20752484;28;20457;-74
2022/07/24 02:20:15;;;;;;;1.95;0.90;;;20.10;51.70;;;;;;20718698;28;20483;-74
2022/07/24 02:30:17;;;;;;;3.20;1.83;;;20.10;51.70;;;;;;20723660;28;20041;-74
2022/07/24 02:40:18;;;;;;;1.63;0.47;;;20.00;51.70;;;;;;20748146;28;20037;-74
2022/07/24 02:50:19;;;;;;;1.13;0.75;;;20.00;51.70;;;;;;20716144;28;20042;-74
2022/07/24 03:00:20;;;;;;;1.20;0.40;;;19.90;51.70;;;;;;20728276;28;20038;-74
2022/07/24 03:10:20;;;;;;;1.50;0.70;;;19.80;51.70;;;;;;20725820;28;20468;-73
2022/07/24 03:20:21;;;;;;;0.98;0.50;;;19.80;51.60;;;;;;20730345;28;20030;-74
2022/07/24 03:30:22;;;;;;;0.70;0.50;;;19.70;51.50;;;;;;20728969;28;20038;-74
2022/07/24 03:40:22;;;;;;;2.40;0.80;;;19.70;51.50;;;;;;20745154;28;20069;-74
2022/07/24 03:50:23;;;;;;;3.92;0.50;;;19.60;51.40;;;;;;20727386;28;20038;-74
2022/07/24 04:00:24;;;;;;;1.65;0.50;;;19.60;51.30;;;;;;20725502;28;20784;-74
2022/07/24 04:10:24;;;;;;;0.70;0.57;;;19.50;51.30;;;;;;20726643;28;20082;-74
2022/07/24 04:20:25;;;;;;;1.65;0.60;;;19.50;51.30;;;;;;20725626;28;20092;-74
2022/07/24 04:30:25;;;;;;;1.50;0.57;;;19.40;51.30;;;;;;20725077;28;20050;-73
2022/07/24 04:40:26;;;;;;;3.70;0.83;;;19.40;51.50;;;;;;20721288;28;20148;-74
2022/07/24 04:50:26;;;;;;;1.30;0.60;;;19.30;51.70;;;;;;20744013;28;20833;-74
2022/07/24 05:00:28;;;;;;;1.90;0.57;;;19.30;52.00;;;;;;20702895;28;20381;-74
2022/07/24 05:10:29;;;;;;;1.27;0.73;;;19.30;52.40;;;;;;20711817;28;20132;-74
2022/07/24 05:20:29;;;;;;;1.13;0.60;;;19.30;53.00;;;;;;20740000;28;20089;-74
2022/07/24 05:30:30;;;;;;;3.30;0.90;;;19.30;54.10;;;;;;20718232;28;20327;-74
2022/07/24 05:40:31;;;;;;;2.83;0.70;;;19.30;54.30;;;;;;20737609;28;20030;-78
2022/07/24 05:50:31;;;;;;;1.10;0.60;;;19.30;55.10;;;;;;20705680;28;20842;-78
2022/07/24 06:00:32;;;;;;;1.15;0.73;;;19.40;55.90;;;;;;20716534;28;20033;-79
2022/07/24 06:10:33;;;;;;;3.60;0.55;;;19.30;56.20;;;;;;20722283;28;20038;-75
2022/07/24 06:20:33;;;;;;;1.92;0.77;;;19.50;56.20;;;;;;20723218;28;20376;-76
2022/07/24 06:30:34;;;;;;;1.63;0.82;;;19.60;56.70;;;;;;20699030;28;20034;-74
2022/07/24 06:40:36;;;;;;;0.83;0.53;;;19.70;57.50;;;;;;20746918;28;20034;-78
2022/07/24 06:50:37;;;;;;;0.85;0.57;;;19.80;57.90;;;;;;20733490;28;20339;-77
2022/07/24 07:00:38;;;;;;;2.50;0.57;;;19.90;58.00;;;;;;20700241;28;20117;-77
2022/07/24 07:10:38;;;;;;;1.00;0.63;;;20.00;57.90;;;;;;20718709;28;20100;-77
2022/07/24 07:20:39;;;;;;;2.55;0.85;;;20.10;57.80;;;;;;20717494;28;20368;-85
2022/07/24 07:30:39;;;;;;;2.17;0.77;;;20.20;57.80;;;;;;20716444;28;20042;-74
2022/07/24 07:40:42;;;;;;;1.38;0.75;;;20.30;57.80;;;;;;20743919;28;20038;-78
2022/07/24 07:50:43;;;;;;;2.03;0.60;;;20.40;57.80;;;;;;20728892;28;20103;-78
2022/07/24 08:00:44;;;;;;;2.08;0.75;;;20.50;57.80;;;;;;20693332;28;20042;-74
2022/07/24 08:10:45;;;;;;;1.13;0.52;;;20.60;57.70;;;;;;20724435;28;20034;-77
2022/07/24 08:20:46;;;;;;;1.10;0.70;;;20.70;57.60;;;;;;20692704;28;20562;-79
2022/07/24 08:30:47;;;;;;;1.15;0.70;;;20.80;57.40;;;;;;20724814;28;20042;-77
2022/07/24 08:40:47;;;;;;;4.13;0.90;;;20.80;57.20;;;;;;20707656;28;20022;-78
2022/07/24 08:50:49;;;;;;;2.33;0.80;;;20.90;57.00;;;;;;20710969;28;20297;-77
2022/07/24 09:00:50;;;;;;;1.27;0.82;;;21.00;56.90;;;;;;20708490;28;20093;-77
2022/07/24 09:11:00;;;;;;;0.80;0.63;;;21.00;56.70;;;;;;20745425;28;20038;-77
2022/07/24 09:21:14;;;;;;;3.00;0.68;;;21.10;56.50;;;;;;20744316;28;20801;-78
2022/07/24 09:31:15;;;;;;;1.33;0.90;;;21.10;56.40;;;;;;20743097;28;20076;-77
2022/07/24 09:41:22;;;;;;;2.40;0.90;;;21.10;56.30;;;;;;20710135;28;20504;-77
2022/07/24 09:51:24;;;;;;;1.33;0.82;;;21.20;56.20;;;;;;20724533;28;20046;-78
2022/07/24 10:01:25;;;;;;;2.25;1.30;;;21.20;56.20;;;;;;20735723;28;20038;-78
2022/07/24 10:11:26;;;;;;;1.70;1.10;;;21.30;56.20;;;;;;20740088;28;20049;-77
2022/07/24 10:21:27;;;;;;;2.60;1.35;;;21.30;56.10;;;;;;20739858;28;20026;-79
2022/07/24 10:31:28;;;;;;;1.23;0.80;;;21.30;56.10;;;;;;20740072;28;20396;-78
2022/07/24 10:41:31;;;;;;;1.55;1.00;;;21.30;56.10;;;;;;20722679;28;20029;-77
2022/07/24 10:51:31;;;;;;;1.25;0.90;;;21.30;56.10;;;;;;20738857;28;20124;-78
2022/07/24 11:01:44;;;;;;;2.03;1.10;;;21.40;56.10;;;;;;20714986;28;20121;-78
2022/07/24 11:11:50;;;;;;;3.60;0.90;;;21.40;56.00;;;;;;20751257;28;20038;-77
2022/07/24 11:22:01;;;;;;;3.47;1.20;;;21.40;56.00;;;;;;20787036;28;20087;-78
2022/07/24 11:32:28;;;;;;;1.70;1.10;;;21.40;55.70;;;;;;20732682;28;20499;-77
2022/07/24 11:42:28;;;;;;;1.95;1.10;;;21.50;55.70;;;;;;20736674;28;20492;-78
2022/07/24 11:52:33;;;;;;;1.35;0.90;;;21.40;55.80;;;;;;20747975;28;20081;-77
2022/07/24 12:02:33;;;;;;;2.22;1.23;;;21.50;55.80;;;;;;20726868;28;20108;-77
2022/07/24 12:12:36;;;;;;;1.70;1.10;;;21.50;55.80;;;;;;20730084;28;20038;-77
2022/07/24 12:22:36;;;;;;;2.65;0.82;;;21.50;55.60;;;;;;20727342;28;20042;-77
2022/07/24 12:32:37;;;;;;;1.93;1.03;;;21.60;55.60;;;;;;20727732;28;20105;-77
2022/07/24 12:42:37;;;;;;;1.33;1.00;;;21.60;55.50;;;;;;20726574;28;20718;-78
2022/07/24 12:52:38;;;;;;;1.25;0.95;;;21.60;55.40;;;;;;20708078;28;20469;-77
2022/07/24 13:02:41;;;;;;;1.20;0.93;;;21.70;55.50;;;;;;20723224;28;20096;-76
2022/07/24 13:12:41;;;;;;;0.90;0.73;;;21.70;55.50;;;;;;20723236;28;20495;-79
2022/07/24 13:22:42;;;;;;;2.33;1.42;;;21.80;55.60;;;;;;20723711;28;20034;-77
2022/07/24 13:32:42;;;;;;;1.65;1.02;;;21.80;55.60;;;;;;20733205;28;20044;-77
2022/07/24 13:42:43;;;;;;;2.25;1.20;;;21.90;55.40;;;;;;20720905;28;20030;-77
2022/07/24 13:52:43;;;;;;;1.52;0.90;;;22.00;55.20;;;;;;20720691;28;20125;-77
2022/07/24 14:02:44;;;;;;;1.10;1.00;;;22.10;55.20;;;;;;20735838;28;20041;-77
2022/07/24 14:12:45;;;;;;;2.53;0.90;;;22.20;54.90;;;;;;20702782;28;20049;-77
2022/07/24 14:22:45;;;;;;;1.67;1.00;;;22.30;54.80;;;;;;20716191;28;20034;-78
2022/07/24 14:32:46;;;;;;;2.65;1.05;;;22.40;54.80;;;;;;20706176;28;20045;-78
2022/07/24 14:42:46;;;;;;;3.50;1.13;;;22.50;54.70;;;;;;20732877;28;20038;-78
2022/07/24 14:52:47;;;;;;;1.83;1.15;;;22.60;54.60;;;;;;20715169;28;20128;-77
2022/07/24 15:02:47;;;;;;;1.65;0.90;;;22.60;54.40;;;;;;20731705;28;20033;-77
2022/07/24 15:12:48;;;;;;;2.10;0.95;;;22.80;54.20;;;;;;20747881;28;20104;-77
2022/07/24 15:22:49;;;;;;;1.55;1.00;;;22.80;54.20;;;;;;20713311;28;20026;-78
2022/07/24 15:32:49;;;;;;;2.40;1.30;;;22.90;54.10;;;;;;20712823;28;20387;-75
2022/07/24 15:42:50;;;;;;;1.40;1.00;;;23.00;54.10;;;;;;20714842;28;20030;-74
2022/07/24 15:52:50;;;;;;;1.63;1.10;;;23.10;54.00;;;;;;20729717;28;20395;-76
2022/07/24 16:02:51;;;;;;;1.60;1.25;;;23.20;53.90;;;;;;20694127;28;20026;-80
2022/07/24 16:12:51;;;;;;;1.65;1.00;;;23.20;53.80;;;;;;20715081;28;20045;-80
2022/07/24 16:22:52;;;;;;;1.52;1.10;;;23.40;53.80;;;;;;20730978;28;20112;-79
2022/07/24 16:32:53;;;;;;;1.58;1.20;;;23.40;53.70;;;;;;20730331;28;20069;-80
2022/07/24 16:42:53;;;;;;;3.08;1.38;;;23.40;53.70;;;;;;20747429;28;20421;-80
2022/07/24 16:52:54;;;;;;;1.92;0.88;;;23.50;53.70;;;;;;20729854;28;20145;-80
2022/07/24 17:02:54;;;;;;;1.73;1.25;;;23.50;54.30;;;;;;20745069;28;20109;-80
2022/07/24 17:12:55;;;;;;;2.10;1.25;;;23.50;53.60;;;;;;20736583;28;20396;-80
2022/07/24 17:22:57;;;;;;;2.90;1.40;;;23.50;53.60;;;;;;20712328;28;20057;-80
2022/07/24 17:32:58;;;;;;;1.95;1.10;;;23.50;53.70;;;;;;20727190;28;20095;-80
2022/07/24 17:42:58;;;;;;;1.52;1.00;;;23.50;53.70;;;;;;20714766;28;20038;-80
2022/07/24 17:52:59;;;;;;;1.10;1.00;;;23.50;53.70;;;;;;20742681;28;20476;-79
2022/07/24 18:03:00;;;;;;;1.95;1.17;;;23.50;53.70;;;;;;20713573;28;20050;-76
2022/07/24 18:13:00;;;;;;;1.70;1.02;;;23.50;54.50;;;;;;20698665;28;20036;-78
2022/07/24 18:23:01;;;;;;;1.83;1.00;;;23.40;53.90;;;;;;20767357;28;20034;-77
2022/07/24 18:33:02;;;;;;;1.37;1.17;;;23.30;54.10;;;;;;20732071;28;20045;-81
2022/07/24 18:43:02;;;;;;;1.67;1.15;;;23.30;54.30;;;;;;20778039;28;20349;-76
2022/07/24 18:53:03;;;;;;;1.97;1.23;;;23.20;54.60;;;;;;20758918;28;20036;-78
2022/07/24 19:03:03;;;;;;;2.17;1.50;;;23.20;54.90;;;;;;20717511;28;20299;-77
2022/07/24 19:13:04;;;;;;;3.10;1.80;;;23.10;55.00;;;;;;20743320;28;20030;-84
2022/07/24 19:23:05;;;;;;;2.63;1.98;;;23.10;55.20;;;;;;20734892;28;20032;-86
2022/07/24 19:33:05;;;;;;;3.15;1.95;;;23.10;55.30;;;;;;20751543;28;20126;-85
2022/07/24 19:43:06;;;;;;;7.43;2.92;;;23.10;55.90;;;;;;20735751;28;20037;-82
2022/07/24 19:53:07;;;;;;;9.20;3.20;;;23.10;56.70;;;;;;20745636;28;20030;-85
2022/07/24 20:03:07;;;;;;;7.95;3.13;;;23.00;56.80;;;;;;20690839;28;20384;-81
2022/07/24 20:13:08;;;;;;;4.22;2.78;;;23.00;56.40;;;;;;20709202;28;20030;-82
2022/07/24 20:23:08;;;;;;;6.15;3.08;;;23.00;56.10;;;;;;20724547;28;20053;-81
2022/07/24 20:33:09;;;;;;;5.88;2.80;;;22.90;56.00;;;;;;20724053;28;20116;-80
2022/07/24 20:43:09;;;;;;;6.18;2.72;;;22.90;55.90;;;;;;20722835;28;20040;-79
2022/07/24 20:53:10;;;;;;;4.45;3.08;;;22.80;56.10;;;;;;20722687;28;20479;-79
2022/07/24 21:03:10;;;;;;;5.88;3.05;;;22.80;56.20;;;;;;20733161;28;20507;-82
2022/07/24 21:13:11;;;;;;;6.32;3.53;;;22.70;56.20;;;;;;20725599;28;20492;-79
2022/07/24 21:23:12;;;;;;;6.40;4.13;;;22.70;56.40;;;;;;20738779;28;20129;-80
2022/07/24 21:33:12;;;;;;;5.72;3.63;;;22.70;56.50;;;;;;20737116;28;20042;-80
2022/07/24 21:43:13;;;;;;;4.33;3.50;;;22.60;56.30;;;;;;20736805;28;20120;-78
2022/07/24 21:53:13;;;;;;;4.68;3.42;;;22.60;56.10;;;;;;20713095;28;20551;-79
2022/07/24 22:03:14;;;;;;;5.20;3.30;;;22.60;56.20;;;;;;20714343;28;20049;-80
2022/07/24 22:13:15;;;;;;;8.52;3.40;;;22.60;56.20;;;;;;20718022;28;20132;-80
2022/07/24 22:23:15;;;;;;;3.35;2.58;;;22.60;56.20;;;;;;20781366;28;20053;-81
2022/07/24 22:33:16;;;;;;;5.85;3.05;;;22.50;56.20;;;;;;20733386;28;20069;-80
2022/07/24 22:43:17;;;;;;;2.97;2.10;;;22.50;56.40;;;;;;20765960;28;20113;-79
2022/07/24 22:53:17;;;;;;;4.80;2.93;;;22.50;56.40;;;;;;20715587;28;20136;-79
2022/07/24 23:03:18;;;;;;;4.75;2.25;;;22.50;56.30;;;;;;20747305;28;20726;-79
2022/07/24 23:13:18;;;;;;;2.65;1.73;;;22.50;56.20;;;;;;20729950;28;20120;-79
2022/07/24 23:23:19;;;;;;;4.13;2.28;;;22.40;56.10;;;;;;20748439;28;20084;-79
2022/07/24 23:33:20;;;;;;;2.38;1.80;;;22.40;56.00;;;;;;20744772;28;20117;-79
2022/07/24 23:43:20;;;;;;;5.30;2.63;;;22.40;56.00;;;;;;20728258;28;20539;-78
2022/07/24 23:53:21;;;;;;;3.03;1.60;;;22.40;55.90;;;;;;20744292;28;20547;-80
